createdAt,value
2022-10-07T00:00:59.792Z,3.45
2022-10-07T00:03:28.016Z,6.75
2022-10-07T00:06:05.563Z,6.71
2022-10-07T00:08:33.133Z,4.15
2022-10-07T00:11:05.277Z,6.39
2022-10-07T00:13:32.699Z,0.47
2022-10-07T00:16:08.145Z,4.79
2022-10-07T00:18:36.978Z,6.81
2022-10-07T00:21:10.283Z,6.77
2022-10-07T00:23:37.560Z,6.69
2022-10-07T00:26:07.427Z,6.68
2022-10-07T00:28:35.575Z,6.58
2022-10-07T00:31:06.222Z,6.59
2022-10-07T00:33:35.845Z,5.85
2022-10-07T00:36:09.404Z,5.32
2022-10-07T00:38:36.548Z,6.68
2022-10-07T00:41:03.549Z,-3.38
2022-10-07T00:43:32.153Z,6.69
2022-10-07T00:46:29.870Z,6.60
2022-10-07T00:49:00.439Z,5.43
2022-10-07T00:51:28.349Z,4.16
2022-10-07T00:53:56.795Z,5.96
2022-10-07T00:56:27.432Z,4.44
2022-10-07T00:58:54.521Z,3.46
2022-10-07T01:01:22.108Z,5.32
2022-10-07T01:03:49.578Z,3.99
2022-10-07T01:06:17.024Z,6.26
2022-10-07T01:08:46.171Z,6.27
2022-10-07T01:11:31.147Z,6.31
2022-10-07T01:14:13.935Z,5.10
2022-10-07T01:16:40.918Z,6.28
2022-10-07T01:19:29.395Z,6.31
2022-10-07T01:22:17.257Z,6.21
2022-10-07T01:25:14.816Z,3.07
2022-10-07T01:27:50.432Z,6.13
2022-10-07T01:30:18.601Z,6.15
2022-10-07T01:32:55.418Z,4.97
2022-10-07T01:35:28.074Z,2.44
2022-10-07T01:38:00.546Z,4.54
2022-10-07T01:40:33.775Z,6.06
2022-10-07T01:43:01.996Z,2.59
2022-10-07T01:45:31.316Z,5.99
2022-10-07T01:47:59.655Z,2.25
2022-10-07T01:50:28.822Z,3.89
2022-10-07T01:53:04.566Z,6.00
2022-10-07T01:55:49.817Z,5.87
2022-10-07T01:58:33.638Z,5.89
2022-10-07T02:01:23.028Z,5.85
2022-10-07T02:04:02.010Z,5.81
2022-10-07T02:07:07.481Z,5.79
2022-10-07T02:09:49.248Z,5.13
2022-10-07T02:12:41.215Z,4.14
2022-10-07T02:15:20.411Z,4.89
2022-10-07T02:17:52.588Z,5.71
2022-10-07T02:20:22.808Z,3.73
2022-10-07T02:22:52.438Z,5.65
2022-10-07T02:25:21.397Z,5.67
2022-10-07T02:27:52.500Z,2.64
2022-10-07T02:30:20.751Z,3.42
2022-10-07T02:32:55.906Z,4.67
2022-10-07T02:35:45.925Z,5.66
2022-10-07T02:38:16.582Z,4.61
2022-10-07T02:40:50.206Z,2.42
2022-10-07T02:43:32.374Z,5.67
2022-10-07T02:46:11.596Z,5.38
2022-10-07T02:48:44.428Z,4.79
2022-10-07T02:51:21.229Z,5.74
2022-10-07T02:53:51.327Z,3.04
2022-10-07T02:56:22.380Z,5.61
2022-10-07T02:58:51.368Z,4.28
2022-10-07T03:01:23.668Z,4.18
2022-10-07T03:03:50.703Z,5.02
2022-10-07T03:06:23.611Z,5.63
2022-10-07T03:08:53.102Z,5.48
2022-10-07T03:11:20.067Z,-0.29
2022-10-07T03:13:47.004Z,-0.27
2022-10-07T03:16:14.003Z,1.44
2022-10-07T03:18:41.570Z,4.55
2022-10-07T03:21:09.023Z,5.46
2022-10-07T03:23:35.945Z,4.27
2022-10-07T03:26:03.131Z,2.25
2022-10-07T03:28:33.717Z,5.42
2022-10-07T03:31:05.946Z,5.43
2022-10-07T03:33:32.906Z,4.37
2022-10-07T03:35:59.873Z,4.55
2022-10-07T03:38:26.939Z,4.03
2022-10-07T03:40:53.940Z,0.83
2022-10-07T03:43:20.871Z,4.68
2022-10-07T03:45:51.166Z,5.32
2022-10-07T03:48:18.656Z,4.46
2022-10-07T03:50:52.702Z,2.99
2022-10-07T03:53:20.639Z,3.65
2022-10-07T03:55:47.601Z,4.24
2022-10-07T03:58:14.522Z,2.80
2022-10-07T04:00:41.686Z,4.53
2022-10-07T04:03:09.901Z,3.12
2022-10-07T04:05:37.786Z,5.40
2022-10-07T04:08:05.682Z,5.41
2022-10-07T04:10:33.425Z,5.40
2022-10-07T04:13:01.123Z,4.97
2022-10-07T04:15:28.253Z,5.33
2022-10-07T04:18:00.422Z,5.25
2022-10-07T04:20:27.545Z,3.77
2022-10-07T04:22:54.503Z,3.61
2022-10-07T04:25:38.115Z,2.77
2022-10-07T04:28:08.807Z,4.84
2022-10-07T04:30:40.319Z,4.03
2022-10-07T04:33:08.413Z,3.70
2022-10-07T04:35:38.094Z,4.57
2022-10-07T04:38:10.105Z,5.16
2022-10-07T04:40:42.086Z,4.10
2022-10-07T04:43:20.329Z,5.11
2022-10-07T04:45:49.754Z,5.13
2022-10-07T04:48:18.755Z,2.84
2022-10-07T04:50:46.418Z,4.74
2022-10-07T04:53:15.806Z,3.80
2022-10-07T04:55:48.601Z,2.00
2022-10-07T04:58:16.557Z,5.12
2022-10-07T05:00:52.215Z,1.15
2022-10-07T05:03:20.790Z,5.15
2022-10-07T05:05:50.213Z,5.14
2022-10-07T05:08:19.672Z,2.98
2022-10-07T05:10:47.481Z,2.50
2022-10-07T05:13:17.250Z,-1.06
2022-10-07T05:15:58.584Z,3.95
2022-10-07T05:18:27.901Z,4.18
2022-10-07T05:20:55.631Z,3.99
2022-10-07T05:23:28.377Z,5.33
2022-10-07T05:26:05.079Z,5.37
2022-10-07T05:28:32.434Z,5.42
2022-10-07T05:31:17.709Z,4.95
2022-10-07T05:33:44.667Z,5.03
2022-10-07T05:36:12.571Z,4.25
2022-10-07T05:38:39.495Z,3.64
2022-10-07T05:41:08.726Z,3.79
2022-10-07T05:43:38.411Z,5.58
2022-10-07T05:46:07.945Z,1.81
2022-10-07T05:48:39.262Z,4.48
2022-10-07T05:51:08.667Z,5.76
2022-10-07T05:53:36.064Z,4.86
2022-10-07T05:56:07.043Z,4.58
2022-10-07T05:58:36.487Z,5.49
2022-10-07T06:01:10.011Z,1.54
2022-10-07T06:03:40.882Z,5.72
2022-10-07T06:06:09.243Z,3.16
2022-10-07T06:08:37.049Z,6.24
2022-10-07T06:11:23.929Z,6.00
2022-10-07T06:13:54.393Z,6.38
2022-10-07T06:16:22.375Z,5.08
2022-10-07T06:18:52.638Z,2.00
2022-10-07T06:21:21.311Z,6.62
2022-10-07T06:23:52.417Z,6.63
2022-10-07T06:26:20.433Z,0.26
2022-10-07T06:28:48.245Z,4.21
2022-10-07T06:31:25.451Z,6.87
2022-10-07T06:33:53.278Z,6.90
2022-10-07T06:36:20.758Z,1.32
2022-10-07T06:38:51.025Z,5.67
2022-10-07T06:41:19.059Z,7.09
2022-10-07T06:43:46.174Z,-0.23
2022-10-07T06:46:16.395Z,2.59
2022-10-07T06:48:44.917Z,5.93
2022-10-07T06:51:17.173Z,6.23
2022-10-07T06:53:45.024Z,6.97
2022-10-07T06:56:14.877Z,1.15
2022-10-07T06:58:43.588Z,2.32
2022-10-07T07:01:11.879Z,7.10
2022-10-07T07:03:39.181Z,7.13
2022-10-07T07:06:08.204Z,7.72
2022-10-07T07:08:35.673Z,7.25
2022-10-07T07:11:05.843Z,7.95
2022-10-07T07:13:35.477Z,3.98
2022-10-07T07:16:02.671Z,7.43
2022-10-07T07:18:30.228Z,0.57
2022-10-07T07:21:02.943Z,6.68
2022-10-07T07:23:29.874Z,7.16
2022-10-07T07:25:56.815Z,8.52
2022-10-07T07:28:23.770Z,8.32
2022-10-07T07:30:50.807Z,4.53
2022-10-07T07:33:17.864Z,7.95
2022-10-07T07:35:45.302Z,8.52
2022-10-07T07:38:12.278Z,2.82
2022-10-07T07:40:39.993Z,8.85
2022-10-07T07:43:08.202Z,8.67
2022-10-07T07:45:38.458Z,7.42
2022-10-07T07:48:05.577Z,8.08
2022-10-07T07:50:32.667Z,8.91
2022-10-07T07:53:02.262Z,8.57
2022-10-07T07:55:29.217Z,5.28
2022-10-07T07:57:56.088Z,8.83
2022-10-07T08:00:23.067Z,6.72
2022-10-07T08:02:50.072Z,9.01
2022-10-07T08:05:20.211Z,8.85
2022-10-07T08:07:50.507Z,10.17
2022-10-07T08:10:17.495Z,9.67
2022-10-07T08:12:44.460Z,6.24
2022-10-07T08:15:11.333Z,10.03
2022-10-07T08:17:38.258Z,8.96
2022-10-07T08:20:05.673Z,8.04
2022-10-07T08:22:32.647Z,10.39
2022-10-07T08:25:00.583Z,7.60
2022-10-07T08:27:28.570Z,10.93
2022-10-07T08:29:55.557Z,9.11
2022-10-07T08:32:22.552Z,9.16
2022-10-07T08:34:49.616Z,9.90
2022-10-07T08:37:16.582Z,7.83
2022-10-07T08:39:43.572Z,11.80
2022-10-07T08:42:30.946Z,12.63
2022-10-07T08:44:58.145Z,11.70
2022-10-07T08:47:38.371Z,11.86
2022-10-07T08:50:19.105Z,12.99
2022-10-07T08:52:51.175Z,13.16
2022-10-07T08:55:24.627Z,13.27
2022-10-07T08:57:55.202Z,13.42
2022-10-07T09:00:25.187Z,12.95
2022-10-07T09:03:07.772Z,13.69
2022-10-07T09:05:41.401Z,13.76
2022-10-07T09:08:28.172Z,12.17
2022-10-07T09:11:03.421Z,12.95
2022-10-07T09:13:40.694Z,12.19
2022-10-07T09:16:10.513Z,14.22
2022-10-07T09:18:42.701Z,12.95
2022-10-07T09:21:17.610Z,12.58
2022-10-07T09:23:46.789Z,12.39
2022-10-07T09:26:17.027Z,13.60
2022-10-07T09:28:44.090Z,11.44
2022-10-07T09:31:15.056Z,14.75
2022-10-07T09:33:45.946Z,14.86
2022-10-07T09:36:19.272Z,14.94
2022-10-07T09:38:52.771Z,14.12
2022-10-07T09:41:38.945Z,13.87
2022-10-07T09:44:25.754Z,15.05
2022-10-07T09:46:56.536Z,15.04
2022-10-07T09:49:29.590Z,15.16
2022-10-07T09:52:05.982Z,14.55
2022-10-07T09:54:36.042Z,15.34
2022-10-07T09:57:05.171Z,14.10
2022-10-07T09:59:37.125Z,14.38
2022-10-07T10:02:10.329Z,15.49
2022-10-07T10:04:40.443Z,14.85
2022-10-07T10:07:17.334Z,15.62
2022-10-07T10:09:55.876Z,14.26
2022-10-07T10:12:25.170Z,10.62
2022-10-07T10:14:53.393Z,15.71
2022-10-07T10:17:40.150Z,15.47
2022-10-07T10:20:36.543Z,15.69
2022-10-07T10:23:28.092Z,14.76
2022-10-07T10:26:19.575Z,15.88
2022-10-07T10:29:14.263Z,15.96
2022-10-07T10:32:07.850Z,14.03
2022-10-07T10:34:53.291Z,16.04
2022-10-07T10:37:33.644Z,14.56
2022-10-07T10:40:21.241Z,14.55
2022-10-07T10:43:11.262Z,16.06
2022-10-07T10:46:16.285Z,16.27
2022-10-07T10:49:16.288Z,16.28
2022-10-07T10:51:58.927Z,15.33
2022-10-07T10:54:39.339Z,16.28
2022-10-07T10:57:43.617Z,16.25
2022-10-07T11:00:15.821Z,16.24
2022-10-07T11:03:04.625Z,16.57
2022-10-07T11:05:37.603Z,16.48
2022-10-07T11:08:37.840Z,16.48
2022-10-07T11:11:11.542Z,13.93
2022-10-07T11:13:54.881Z,16.37
2022-10-07T11:16:47.922Z,14.42
2022-10-07T11:19:20.759Z,16.55
2022-10-07T11:21:50.930Z,16.53
2022-10-07T11:24:29.602Z,16.52
2022-10-07T11:27:11.804Z,15.80
2022-10-07T11:29:52.471Z,16.62
2022-10-07T11:32:36.237Z,16.61
2022-10-07T11:35:30.434Z,16.51
2022-10-07T11:38:13.323Z,16.64
2022-10-07T11:40:46.220Z,16.66
2022-10-07T11:43:21.902Z,11.41
2022-10-07T11:45:52.974Z,16.63
2022-10-07T11:48:27.404Z,14.24
2022-10-07T11:51:01.993Z,16.35
2022-10-07T11:53:34.894Z,13.46
2022-10-07T11:56:23.149Z,16.69
2022-10-07T11:59:05.526Z,15.68
2022-10-07T12:01:35.371Z,16.80
2022-10-07T12:04:34.303Z,16.88
2022-10-07T12:07:32.637Z,16.85
2022-10-07T12:10:02.625Z,16.85
2022-10-07T12:12:57.142Z,16.79
2022-10-07T12:15:36.288Z,16.85
2022-10-07T12:18:06.226Z,16.85
2022-10-07T12:20:51.504Z,16.94
2022-10-07T12:23:22.945Z,16.92
2022-10-07T12:25:54.983Z,16.92
2022-10-07T12:28:30.295Z,16.98
2022-10-07T12:31:02.597Z,16.94
2022-10-07T12:33:52.839Z,16.39
2022-10-07T12:36:22.625Z,17.01
2022-10-07T12:39:12.720Z,17.06
2022-10-07T12:41:45.561Z,16.27
2022-10-07T12:44:15.497Z,17.12
2022-10-07T12:47:15.085Z,17.06
2022-10-07T12:50:07.666Z,17.11
2022-10-07T12:52:46.237Z,17.06
2022-10-07T12:55:23.808Z,17.12
2022-10-07T12:57:55.300Z,16.40
2022-10-07T13:00:28.137Z,17.10
2022-10-07T13:03:29.468Z,17.10
2022-10-07T13:06:07.970Z,16.12
2022-10-07T13:09:02.994Z,16.96
2022-10-07T13:11:48.333Z,16.82
2022-10-07T13:14:41.912Z,16.80
2022-10-07T13:17:21.076Z,16.83
2022-10-07T13:19:52.975Z,16.36
2022-10-07T13:22:20.519Z,16.13
2022-10-07T13:24:53.928Z,16.08
2022-10-07T13:27:25.630Z,14.96
2022-10-07T13:29:53.613Z,16.98
2022-10-07T13:32:32.683Z,17.09
2022-10-07T13:35:01.801Z,16.79
2022-10-07T13:37:35.192Z,16.95
2022-10-07T13:40:22.782Z,16.91
2022-10-07T13:42:59.511Z,16.86
2022-10-07T13:45:28.050Z,16.89
2022-10-07T13:47:57.499Z,16.99
2022-10-07T13:50:27.494Z,17.01
2022-10-07T13:52:56.375Z,15.75
2022-10-07T13:55:26.406Z,16.97
2022-10-07T13:57:57.616Z,16.91
2022-10-07T14:00:29.399Z,15.65
2022-10-07T14:02:56.471Z,15.93
2022-10-07T14:05:30.574Z,16.71
2022-10-07T14:08:11.414Z,15.98
2022-10-07T14:10:49.178Z,16.58
2022-10-07T14:13:16.847Z,16.36
2022-10-07T14:15:49.099Z,15.46
2022-10-07T14:18:20.411Z,16.50
2022-10-07T14:20:56.198Z,14.32
2022-10-07T14:23:34.625Z,16.44
2022-10-07T14:26:06.387Z,13.97
2022-10-07T14:28:35.530Z,16.42
2022-10-07T14:31:27.409Z,16.34
2022-10-07T14:34:16.078Z,16.29
2022-10-07T14:37:05.212Z,15.64
2022-10-07T14:39:53.497Z,16.14
2022-10-07T14:42:26.858Z,14.60
2022-10-07T14:44:56.274Z,11.63
2022-10-07T14:47:28.570Z,14.41
2022-10-07T14:49:57.357Z,16.00
2022-10-07T14:52:52.503Z,15.93
2022-10-07T14:55:25.816Z,15.86
2022-10-07T14:57:53.262Z,15.81
2022-10-07T15:00:30.221Z,14.07
2022-10-07T15:02:57.165Z,13.69
2022-10-07T15:05:24.914Z,15.08
2022-10-07T15:07:52.119Z,7.72
2022-10-07T15:10:22.310Z,15.56
2022-10-07T15:12:50.393Z,15.19
2022-10-07T15:15:17.816Z,14.36
2022-10-07T15:17:44.830Z,14.94
2022-10-07T15:20:14.874Z,15.35
2022-10-07T15:22:42.395Z,14.17
2022-10-07T15:25:10.945Z,15.21
2022-10-07T15:27:38.393Z,14.79
2022-10-07T15:30:07.409Z,9.07
2022-10-07T15:32:34.778Z,15.05
2022-10-07T15:35:01.998Z,14.99
2022-10-07T15:37:28.871Z,12.09
2022-10-07T15:39:56.024Z,14.29
2022-10-07T15:42:26.049Z,14.77
2022-10-07T15:44:54.152Z,14.70
2022-10-07T15:47:21.144Z,10.80
2022-10-07T15:49:49.252Z,13.35
2022-10-07T15:52:16.790Z,13.43
2022-10-07T15:54:46.592Z,14.39
2022-10-07T15:57:14.584Z,13.63
2022-10-07T15:59:42.450Z,13.59
2022-10-07T16:02:18.130Z,11.89
2022-10-07T16:04:47.596Z,13.72
2022-10-07T16:07:15.621Z,13.01
2022-10-07T16:09:42.618Z,11.72
2022-10-07T16:12:09.701Z,10.71
2022-10-07T16:14:36.734Z,12.17
2022-10-07T16:17:04.892Z,13.79
2022-10-07T16:19:31.846Z,12.84
2022-10-07T16:21:58.835Z,12.84
2022-10-07T16:24:25.806Z,13.31
2022-10-07T16:26:53.118Z,13.56
2022-10-07T16:29:40.909Z,13.52
2022-10-07T16:32:13.029Z,12.81
2022-10-07T16:34:43.764Z,9.24
2022-10-07T16:37:11.208Z,13.39
2022-10-07T16:39:38.560Z,12.10
2022-10-07T16:42:05.621Z,11.72
2022-10-07T16:44:32.653Z,11.76
2022-10-07T16:47:00.659Z,13.02
2022-10-07T16:49:29.636Z,11.82
2022-10-07T16:51:57.046Z,12.62
2022-10-07T16:54:24.694Z,12.25
2022-10-07T16:56:52.844Z,13.15
2022-10-07T16:59:26.325Z,13.10
2022-10-07T17:01:55.997Z,13.06
2022-10-07T17:04:25.039Z,12.93
2022-10-07T17:06:52.845Z,12.97
2022-10-07T17:09:20.047Z,12.90
2022-10-07T17:11:47.260Z,11.23
2022-10-07T17:14:19.739Z,12.83
2022-10-07T17:16:51.995Z,12.81
2022-10-07T17:19:24.303Z,12.79
2022-10-07T17:21:53.033Z,12.76
2022-10-07T17:24:22.762Z,10.91
2022-10-07T17:26:50.717Z,9.51
2022-10-07T17:29:21.017Z,12.61
2022-10-07T17:31:50.974Z,12.63
2022-10-07T17:34:23.035Z,12.62
2022-10-07T17:36:50.756Z,11.10
2022-10-07T17:39:19.643Z,11.11
2022-10-07T17:41:47.500Z,12.57
2022-10-07T17:44:14.496Z,9.63
2022-10-07T17:46:41.711Z,12.24
2022-10-07T17:49:13.675Z,11.19
2022-10-07T17:51:42.893Z,10.47
2022-10-07T17:54:11.893Z,12.50
2022-10-07T17:56:38.892Z,11.38
2022-10-07T17:59:05.830Z,12.47
2022-10-07T18:01:34.972Z,12.46
2022-10-07T18:04:04.667Z,12.44
2022-10-07T18:06:34.874Z,11.64
2022-10-07T18:09:04.683Z,11.12
2022-10-07T18:11:51.272Z,11.38
2022-10-07T18:14:37.234Z,10.41
2022-10-07T18:17:05.238Z,9.49
2022-10-07T18:19:32.458Z,6.26
2022-10-07T18:21:59.394Z,11.00
2022-10-07T18:24:29.067Z,11.78
2022-10-07T18:26:59.416Z,9.76
2022-10-07T18:29:31.447Z,10.94
2022-10-07T18:31:58.800Z,11.46
2022-10-07T18:34:25.841Z,9.68
2022-10-07T18:36:56.652Z,9.97
2022-10-07T18:39:25.243Z,11.76
2022-10-07T18:41:52.180Z,10.79
2022-10-07T18:44:19.331Z,10.81
2022-10-07T18:46:46.363Z,10.76
2022-10-07T18:49:14.159Z,10.21
2022-10-07T18:51:41.580Z,11.97
2022-10-07T18:54:08.808Z,9.90
2022-10-07T18:56:40.015Z,4.90
2022-10-07T18:59:08.160Z,9.18
2022-10-07T19:01:35.246Z,8.97
2022-10-07T19:04:03.497Z,10.18
2022-10-07T19:06:32.540Z,11.78
2022-10-07T19:09:03.433Z,11.79
2022-10-07T19:11:30.841Z,10.81
2022-10-07T19:13:59.539Z,11.70
2022-10-07T19:16:34.922Z,11.67
2022-10-07T19:19:05.200Z,10.62
2022-10-07T19:21:32.569Z,11.59
2022-10-07T19:24:03.851Z,11.55
2022-10-07T19:26:43.184Z,11.27
2022-10-07T19:29:11.748Z,6.05
2022-10-07T19:31:41.775Z,11.40
2022-10-07T19:34:20.484Z,11.32
2022-10-07T19:36:48.738Z,7.55
2022-10-07T19:39:18.491Z,11.38
2022-10-07T19:41:46.415Z,10.97
2022-10-07T19:44:14.460Z,9.86
2022-10-07T19:46:41.855Z,11.28
2022-10-07T19:49:09.571Z,11.25
2022-10-07T19:51:37.595Z,7.97
2022-10-07T19:54:10.307Z,8.97
2022-10-07T19:56:37.737Z,10.16
2022-10-07T19:59:07.708Z,9.24
2022-10-07T20:01:37.905Z,10.16
2022-10-07T20:04:07.719Z,10.47
2022-10-07T20:06:39.171Z,10.83
2022-10-07T20:09:08.890Z,7.73
2022-10-07T20:11:36.771Z,8.26
2022-10-07T20:14:06.093Z,10.75
2022-10-07T20:16:34.053Z,9.91
2022-10-07T20:19:06.046Z,11.10
2022-10-07T20:21:35.938Z,11.09
2022-10-07T20:24:04.541Z,11.09
2022-10-07T20:26:34.283Z,10.01
2022-10-07T20:29:02.974Z,11.07
2022-10-07T20:31:32.814Z,9.89
2022-10-07T20:34:00.544Z,10.24
2022-10-07T20:36:30.764Z,10.30
2022-10-07T20:39:47.005Z,8.78
2022-10-07T20:42:24.692Z,9.18
2022-10-07T20:44:52.866Z,11.07
2022-10-07T20:47:20.957Z,11.07
2022-10-07T20:49:49.290Z,10.79
2022-10-07T20:52:21.399Z,10.36
2022-10-07T20:54:48.422Z,7.12
2022-10-07T20:57:17.883Z,11.02
2022-10-07T20:59:44.888Z,10.13
2022-10-07T21:02:13.883Z,10.66
2022-10-07T21:04:41.339Z,9.07
2022-10-07T21:07:08.807Z,10.66
2022-10-07T21:09:40.138Z,11.03
2022-10-07T21:12:14.028Z,10.99
2022-10-07T21:14:42.597Z,10.48
2022-10-07T21:17:09.782Z,10.69
2022-10-07T21:19:36.927Z,9.84
2022-10-07T21:22:05.598Z,10.98
2022-10-07T21:24:36.342Z,10.93
2022-10-07T21:27:04.187Z,10.93
2022-10-07T21:29:31.683Z,9.81
2022-10-07T21:31:58.906Z,10.95
2022-10-07T21:34:26.359Z,9.93
2022-10-07T21:36:54.759Z,8.59
2022-10-07T21:39:21.885Z,7.97
2022-10-07T21:41:49.793Z,10.55
2022-10-07T21:44:19.730Z,10.18
2022-10-07T21:46:47.115Z,10.85
2022-10-07T21:49:14.999Z,10.89
2022-10-07T21:51:42.952Z,9.88
2022-10-07T21:54:14.572Z,10.90
2022-10-07T21:56:44.059Z,8.84
2022-10-07T21:59:11.687Z,9.81
2022-10-07T22:01:39.052Z,9.04
2022-10-07T22:04:06.327Z,9.27
2022-10-07T22:06:51.917Z,9.79
2022-10-07T22:09:21.497Z,10.29
2022-10-07T22:11:49.219Z,10.84
2022-10-07T22:14:17.589Z,9.82
2022-10-07T22:16:48.524Z,4.80
2022-10-07T22:19:17.802Z,8.21
2022-10-07T22:21:46.040Z,10.81
2022-10-07T22:24:14.379Z,10.79
2022-10-07T22:26:46.266Z,10.77
2022-10-07T22:29:16.407Z,10.55
2022-10-07T22:31:43.529Z,8.38
2022-10-07T22:34:33.958Z,10.80
2022-10-07T22:37:01.355Z,10.43
2022-10-07T22:39:31.764Z,10.85
2022-10-07T22:42:00.124Z,7.98
2022-10-07T22:44:28.456Z,7.99
2022-10-07T22:46:56.737Z,10.80
2022-10-07T22:49:27.336Z,10.37
2022-10-07T22:51:56.697Z,8.09
2022-10-07T22:54:23.669Z,9.50
2022-10-07T22:56:50.631Z,5.81
2022-10-07T22:59:17.593Z,10.28
2022-10-07T23:01:44.551Z,9.69
2022-10-07T23:04:11.512Z,4.32
2022-10-07T23:06:38.401Z,5.20
2022-10-07T23:09:05.575Z,9.42
2022-10-07T23:11:32.598Z,6.91
2022-10-07T23:14:00.225Z,10.29
2022-10-07T23:16:29.942Z,10.61
2022-10-07T23:18:58.756Z,9.48
2022-10-07T23:21:32.872Z,10.15
2022-10-07T23:24:06.961Z,10.15
2022-10-07T23:26:35.763Z,9.42
2022-10-07T23:29:03.202Z,9.03
2022-10-07T23:31:32.213Z,10.50
2022-10-07T23:34:01.177Z,5.46
2022-10-07T23:36:29.348Z,10.44
2022-10-07T23:38:58.250Z,10.02
2022-10-07T23:41:27.607Z,4.33
2022-10-07T23:43:57.215Z,9.21
2022-10-07T23:46:26.605Z,9.99
2022-10-07T23:48:54.189Z,10.08
2022-10-07T23:51:23.623Z,10.39
2022-10-07T23:53:51.139Z,8.53
2022-10-07T23:56:19.054Z,10.36
2022-10-07T23:58:46.176Z,7.73
